sensor_id;sensor_type;location;lat;lon;timestamp;temperature;humidity
2967;DHT22;1493;51.496;7.210;2022-12-07T00:01:41;6.40;99.90
2967;DHT22;1493;51.496;7.210;2022-12-07T00:04:10;6.40;99.90
2967;DHT22;1493;51.496;7.210;2022-12-07T00:06:39;6.30;99.90
2967;DHT22;1493;51.496;7.210;2022-12-07T00:09:09;6.40;99.90
2967;DHT22;1493;51.496;7.210;2022-12-07T00:11:36;6.40;99.90
2967;DHT22;1493;51.496;7.210;2022-12-07T00:14:06;6.40;99.90
2967;DHT22;1493;51.496;7.210;2022-12-07T00:16:34;6.40;99.90
2967;DHT22;1493;51.496;7.210;2022-12-07T00:19:02;6.40;99.90
2967;DHT22;1493;51.496;7.210;2022-12-07T00:21:31;6.40;99.90
2967;DHT22;1493;51.496;7.210;2022-12-07T00:23:59;6.40;99.90
2967;DHT22;1493;51.496;7.210;2022-12-07T00:26:27;6.40;99.90
2967;DHT22;1493;51.496;7.210;2022-12-07T00:28:56;6.50;99.90
2967;DHT22;1493;51.496;7.210;2022-12-07T00:31:26;6.50;99.90
2967;DHT22;1493;51.496;7.210;2022-12-07T00:33:54;6.50;99.90
2967;DHT22;1493;51.496;7.210;2022-12-07T00:36:22;6.50;99.90
2967;DHT22;1493;51.496;7.210;2022-12-07T00:38:49;6.40;99.90
2967;DHT22;1493;51.496;7.210;2022-12-07T00:41:18;6.40;99.90
2967;DHT22;1493;51.496;7.210;2022-12-07T00:43:46;6.40;99.90
2967;DHT22;1493;51.496;7.210;2022-12-07T00:46:13;6.40;99.90
2967;DHT22;1493;51.496;7.210;2022-12-07T00:48:41;6.40;99.90
2967;DHT22;1493;51.496;7.210;2022-12-07T00:51:10;6.40;99.90
2967;DHT22;1493;51.496;7.210;2022-12-07T00:53:37;6.40;99.90
2967;DHT22;1493;51.496;7.210;2022-12-07T00:56:05;6.50;99.90
2967;DHT22;1493;51.496;7.210;2022-12-07T00:58:32;6.60;99.90
2967;DHT22;1493;51.496;7.210;2022-12-07T01:01:00;6.60;99.90
2967;DHT22;1493;51.496;7.210;2022-12-07T01:03:26;6.50;99.90
2967;DHT22;1493;51.496;7.210;2022-12-07T01:05:55;6.50;99.90
2967;DHT22;1493;51.496;7.210;2022-12-07T01:08:24;6.40;99.90
2967;DHT22;1493;51.496;7.210;2022-12-07T01:10:58;6.40;99.90
2967;DHT22;1493;51.496;7.210;2022-12-07T01:13:25;6.40;99.90
2967;DHT22;1493;51.496;7.210;2022-12-07T01:15:57;6.40;99.90
2967;DHT22;1493;51.496;7.210;2022-12-07T01:18:25;6.50;99.90
2967;DHT22;1493;51.496;7.210;2022-12-07T01:20:58;6.60;99.90
2967;DHT22;1493;51.496;7.210;2022-12-07T01:23:26;6.60;99.90
2967;DHT22;1493;51.496;7.210;2022-12-07T01:25:56;6.60;99.90
2967;DHT22;1493;51.496;7.210;2022-12-07T01:28:24;6.60;99.90
2967;DHT22;1493;51.496;7.210;2022-12-07T01:31:02;6.60;99.90
2967;DHT22;1493;51.496;7.210;2022-12-07T01:33:30;6.60;99.90
2967;DHT22;1493;51.496;7.210;2022-12-07T01:36:01;6.60;99.90
2967;DHT22;1493;51.496;7.210;2022-12-07T01:38:30;6.60;99.90
2967;DHT22;1493;51.496;7.210;2022-12-07T01:40:57;6.60;99.90
2967;DHT22;1493;51.496;7.210;2022-12-07T01:43:27;6.60;99.90
2967;DHT22;1493;51.496;7.210;2022-12-07T01:45:55;6.60;99.90
2967;DHT22;1493;51.496;7.210;2022-12-07T01:48:24;6.50;99.90
2967;DHT22;1493;51.496;7.210;2022-12-07T01:50:53;6.60;99.90
2967;DHT22;1493;51.496;7.210;2022-12-07T01:53:21;6.50;99.90
2967;DHT22;1493;51.496;7.210;2022-12-07T01:55:53;6.60;99.90
2967;DHT22;1493;51.496;7.210;2022-12-07T01:58:21;6.60;99.90
2967;DHT22;1493;51.496;7.210;2022-12-07T02:00:48;6.60;99.90
2967;DHT22;1493;51.496;7.210;2022-12-07T02:03:18;6.50;99.90
2967;DHT22;1493;51.496;7.210;2022-12-07T02:05:46;6.50;99.90
2967;DHT22;1493;51.496;7.210;2022-12-07T02:08:14;6.60;99.90
2967;DHT22;1493;51.496;7.210;2022-12-07T02:10:41;6.50;99.90
2967;DHT22;1493;51.496;7.210;2022-12-07T02:13:12;6.60;99.90
2967;DHT22;1493;51.496;7.210;2022-12-07T02:15:48;6.60;99.90
2967;DHT22;1493;51.496;7.210;2022-12-07T02:18:22;6.60;99.90
2967;DHT22;1493;51.496;7.210;2022-12-07T02:20:54;6.40;99.90
2967;DHT22;1493;51.496;7.210;2022-12-07T02:23:39;6.40;99.90
2967;DHT22;1493;51.496;7.210;2022-12-07T02:26:37;6.40;99.90
2967;DHT22;1493;51.496;7.210;2022-12-07T02:29:19;6.50;99.90
2967;DHT22;1493;51.496;7.210;2022-12-07T02:31:53;6.50;99.90
2967;DHT22;1493;51.496;7.210;2022-12-07T02:34:31;6.40;99.90
2967;DHT22;1493;51.496;7.210;2022-12-07T02:37:03;6.40;99.90
2967;DHT22;1493;51.496;7.210;2022-12-07T02:39:39;6.30;99.90
2967;DHT22;1493;51.496;7.210;2022-12-07T02:42:12;6.40;99.90
2967;DHT22;1493;51.496;7.210;2022-12-07T02:44:42;6.40;99.90
2967;DHT22;1493;51.496;7.210;2022-12-07T02:47:13;6.30;99.90
2967;DHT22;1493;51.496;7.210;2022-12-07T02:49:41;6.30;99.90
2967;DHT22;1493;51.496;7.210;2022-12-07T02:52:08;6.30;99.90
2967;DHT22;1493;51.496;7.210;2022-12-07T02:54:35;6.20;99.90
2967;DHT22;1493;51.496;7.210;2022-12-07T02:57:11;6.20;99.90
2967;DHT22;1493;51.496;7.210;2022-12-07T02:59:49;6.20;99.90
2967;DHT22;1493;51.496;7.210;2022-12-07T03:02:26;6.20;99.90
2967;DHT22;1493;51.496;7.210;2022-12-07T03:05:05;6.10;99.90
2967;DHT22;1493;51.496;7.210;2022-12-07T03:07:38;6.00;99.90
2967;DHT22;1493;51.496;7.210;2022-12-07T03:10:11;6.00;99.90
2967;DHT22;1493;51.496;7.210;2022-12-07T03:12:45;6.00;99.90
2967;DHT22;1493;51.496;7.210;2022-12-07T03:15:22;5.90;99.90
2967;DHT22;1493;51.496;7.210;2022-12-07T03:17:53;5.90;99.90
2967;DHT22;1493;51.496;7.210;2022-12-07T03:20:23;5.80;99.90
2967;DHT22;1493;51.496;7.210;2022-12-07T03:22:53;5.70;99.90
2967;DHT22;1493;51.496;7.210;2022-12-07T03:25:21;5.60;99.90
2967;DHT22;1493;51.496;7.210;2022-12-07T03:27:51;5.50;99.90
2967;DHT22;1493;51.496;7.210;2022-12-07T03:30:24;5.40;99.90
2967;DHT22;1493;51.496;7.210;2022-12-07T03:32:58;5.40;99.90
2967;DHT22;1493;51.496;7.210;2022-12-07T03:35:28;5.30;99.90
2967;DHT22;1493;51.496;7.210;2022-12-07T03:38:00;5.30;99.90
2967;DHT22;1493;51.496;7.210;2022-12-07T03:40:30;5.30;99.90
2967;DHT22;1493;51.496;7.210;2022-12-07T03:43:01;5.20;99.90
2967;DHT22;1493;51.496;7.210;2022-12-07T03:45:38;5.10;99.90
2967;DHT22;1493;51.496;7.210;2022-12-07T03:48:08;5.10;99.90
2967;DHT22;1493;51.496;7.210;2022-12-07T03:50:41;5.00;99.90
2967;DHT22;1493;51.496;7.210;2022-12-07T03:53:13;4.90;99.90
2967;DHT22;1493;51.496;7.210;2022-12-07T03:55:44;4.90;99.90
2967;DHT22;1493;51.496;7.210;2022-12-07T03:58:14;4.80;99.90
2967;DHT22;1493;51.496;7.210;2022-12-07T04:00:44;4.80;99.90
2967;DHT22;1493;51.496;7.210;2022-12-07T04:03:11;4.80;99.90
2967;DHT22;1493;51.496;7.210;2022-12-07T04:05:38;4.80;99.90
2967;DHT22;1493;51.496;7.210;2022-12-07T04:08:06;4.80;99.90
2967;DHT22;1493;51.496;7.210;2022-12-07T04:10:32;4.80;99.90
2967;DHT22;1493;51.496;7.210;2022-12-07T04:12:59;4.90;99.90
2967;DHT22;1493;51.496;7.210;2022-12-07T04:15:26;5.00;99.90
2967;DHT22;1493;51.496;7.210;2022-12-07T04:17:54;5.00;99.90
2967;DHT22;1493;51.496;7.210;2022-12-07T04:20:21;5.10;99.90
2967;DHT22;1493;51.496;7.210;2022-12-07T04:22:48;5.10;99.90
2967;DHT22;1493;51.496;7.210;2022-12-07T04:25:15;5.10;99.90
2967;DHT22;1493;51.496;7.210;2022-12-07T04:27:42;5.10;99.90
2967;DHT22;1493;51.496;7.210;2022-12-07T04:30:09;5.10;99.90
2967;DHT22;1493;51.496;7.210;2022-12-07T04:32:36;5.20;99.90
2967;DHT22;1493;51.496;7.210;2022-12-07T04:35:05;5.20;99.90
2967;DHT22;1493;51.496;7.210;2022-12-07T04:37:32;5.20;99.90
2967;DHT22;1493;51.496;7.210;2022-12-07T04:39:59;5.20;99.90
2967;DHT22;1493;51.496;7.210;2022-12-07T04:42:26;5.20;99.90
2967;DHT22;1493;51.496;7.210;2022-12-07T04:44:52;5.20;99.90
2967;DHT22;1493;51.496;7.210;2022-12-07T04:47:19;5.20;99.90
2967;DHT22;1493;51.496;7.210;2022-12-07T04:49:46;5.20;99.90
2967;DHT22;1493;51.496;7.210;2022-12-07T04:52:14;5.30;99.90
2967;DHT22;1493;51.496;7.210;2022-12-07T04:54:41;5.30;99.90
2967;DHT22;1493;51.496;7.210;2022-12-07T04:57:08;5.30;99.90
2967;DHT22;1493;51.496;7.210;2022-12-07T04:59:34;5.30;99.90
2967;DHT22;1493;51.496;7.210;2022-12-07T05:02:01;5.40;99.90
2967;DHT22;1493;51.496;7.210;2022-12-07T05:04:28;5.40;99.90
2967;DHT22;1493;51.496;7.210;2022-12-07T05:06:55;5.40;99.90
2967;DHT22;1493;51.496;7.210;2022-12-07T05:09:23;5.40;99.90
2967;DHT22;1493;51.496;7.210;2022-12-07T05:11:50;5.40;99.90
2967;DHT22;1493;51.496;7.210;2022-12-07T05:14:18;5.40;99.90
2967;DHT22;1493;51.496;7.210;2022-12-07T05:16:47;5.40;99.90
2967;DHT22;1493;51.496;7.210;2022-12-07T05:19:16;5.40;99.90
2967;DHT22;1493;51.496;7.210;2022-12-07T05:21:42;5.30;99.90
2967;DHT22;1493;51.496;7.210;2022-12-07T05:24:11;5.30;99.90
2967;DHT22;1493;51.496;7.210;2022-12-07T05:26:40;5.30;99.90
2967;DHT22;1493;51.496;7.210;2022-12-07T05:29:07;5.20;99.90
2967;DHT22;1493;51.496;7.210;2022-12-07T05:31:34;5.20;99.90
2967;DHT22;1493;51.496;7.210;2022-12-07T05:34:01;5.10;99.90
2967;DHT22;1493;51.496;7.210;2022-12-07T05:36:28;5.10;99.90
2967;DHT22;1493;51.496;7.210;2022-12-07T05:38:56;5.10;99.90
2967;DHT22;1493;51.496;7.210;2022-12-07T05:41:23;5.20;99.90
2967;DHT22;1493;51.496;7.210;2022-12-07T05:44:09;5.10;99.90
2967;DHT22;1493;51.496;7.210;2022-12-07T05:46:36;5.20;99.90
2967;DHT22;1493;51.496;7.210;2022-12-07T05:49:03;5.10;99.90
2967;DHT22;1493;51.496;7.210;2022-12-07T05:51:30;5.20;99.90
2967;DHT22;1493;51.496;7.210;2022-12-07T05:53:56;5.20;99.90
2967;DHT22;1493;51.496;7.210;2022-12-07T05:56:23;5.30;99.90
2967;DHT22;1493;51.496;7.210;2022-12-07T05:58:52;5.30;99.90
2967;DHT22;1493;51.496;7.210;2022-12-07T06:01:37;5.20;99.90
2967;DHT22;1493;51.496;7.210;2022-12-07T06:04:04;5.30;99.90
2967;DHT22;1493;51.496;7.210;2022-12-07T06:06:31;5.20;99.90
2967;DHT22;1493;51.496;7.210;2022-12-07T06:08:58;5.20;99.90
2967;DHT22;1493;51.496;7.210;2022-12-07T06:11:24;5.20;99.90
2967;DHT22;1493;51.496;7.210;2022-12-07T06:14:09;5.30;99.90
2967;DHT22;1493;51.496;7.210;2022-12-07T06:16:37;5.30;99.90
2967;DHT22;1493;51.496;7.210;2022-12-07T06:19:04;5.30;99.90
2967;DHT22;1493;51.496;7.210;2022-12-07T06:21:30;5.30;99.90
2967;DHT22;1493;51.496;7.210;2022-12-07T06:23:57;5.40;99.90
2967;DHT22;1493;51.496;7.210;2022-12-07T06:26:24;5.40;99.90
2967;DHT22;1493;51.496;7.210;2022-12-07T06:28:51;5.40;99.90
2967;DHT22;1493;51.496;7.210;2022-12-07T06:31:18;5.40;99.90
2967;DHT22;1493;51.496;7.210;2022-12-07T06:33:46;5.40;99.90
2967;DHT22;1493;51.496;7.210;2022-12-07T06:36:13;5.40;99.90
2967;DHT22;1493;51.496;7.210;2022-12-07T06:38:40;5.40;99.90
2967;DHT22;1493;51.496;7.210;2022-12-07T06:41:06;5.50;99.90
2967;DHT22;1493;51.496;7.210;2022-12-07T06:43:33;5.40;99.90
2967;DHT22;1493;51.496;7.210;2022-12-07T06:46:00;5.50;99.90
2967;DHT22;1493;51.496;7.210;2022-12-07T06:48:29;5.40;99.90
2967;DHT22;1493;51.496;7.210;2022-12-07T06:50:57;5.40;99.90
2967;DHT22;1493;51.496;7.210;2022-12-07T06:53:23;5.50;99.90
2967;DHT22;1493;51.496;7.210;2022-12-07T06:55:50;5.50;99.90
2967;DHT22;1493;51.496;7.210;2022-12-07T06:58:18;5.40;99.90
2967;DHT22;1493;51.496;7.210;2022-12-07T07:00:45;5.40;99.90
2967;DHT22;1493;51.496;7.210;2022-12-07T07:03:11;5.40;99.90
2967;DHT22;1493;51.496;7.210;2022-12-07T07:05:38;5.40;99.90
2967;DHT22;1493;51.496;7.210;2022-12-07T07:08:07;5.30;99.90
2967;DHT22;1493;51.496;7.210;2022-12-07T07:10:34;5.20;99.90
2967;DHT22;1493;51.496;7.210;2022-12-07T07:13:01;5.10;99.90
2967;DHT22;1493;51.496;7.210;2022-12-07T07:15:31;5.10;99.90
2967;DHT22;1493;51.496;7.210;2022-12-07T07:17:58;5.20;99.90
2967;DHT22;1493;51.496;7.210;2022-12-07T07:20:25;5.20;99.90
2967;DHT22;1493;51.496;7.210;2022-12-07T07:22:54;5.20;99.90
2967;DHT22;1493;51.496;7.210;2022-12-07T07:25:23;5.20;99.90
2967;DHT22;1493;51.496;7.210;2022-12-07T07:27:49;5.30;99.90
2967;DHT22;1493;51.496;7.210;2022-12-07T07:30:16;5.40;99.90
2967;DHT22;1493;51.496;7.210;2022-12-07T07:32:43;5.40;99.90
2967;DHT22;1493;51.496;7.210;2022-12-07T07:35:10;5.30;99.90
2967;DHT22;1493;51.496;7.210;2022-12-07T07:37:37;5.30;99.90
2967;DHT22;1493;51.496;7.210;2022-12-07T07:40:05;5.40;99.90
2967;DHT22;1493;51.496;7.210;2022-12-07T07:42:34;5.40;99.90
2967;DHT22;1493;51.496;7.210;2022-12-07T07:45:01;5.40;99.90
2967;DHT22;1493;51.496;7.210;2022-12-07T07:47:27;5.40;99.90
2967;DHT22;1493;51.496;7.210;2022-12-07T07:49:54;5.30;99.90
2967;DHT22;1493;51.496;7.210;2022-12-07T07:52:22;5.30;99.90
2967;DHT22;1493;51.496;7.210;2022-12-07T07:54:49;5.30;99.90
2967;DHT22;1493;51.496;7.210;2022-12-07T07:57:16;5.20;99.90
2967;DHT22;1493;51.496;7.210;2022-12-07T07:59:44;5.20;99.90
2967;DHT22;1493;51.496;7.210;2022-12-07T08:02:14;5.20;99.90
2967;DHT22;1493;51.496;7.210;2022-12-07T08:04:41;5.30;99.90
2967;DHT22;1493;51.496;7.210;2022-12-07T08:07:08;5.30;99.90
2967;DHT22;1493;51.496;7.210;2022-12-07T08:09:35;5.40;99.90
2967;DHT22;1493;51.496;7.210;2022-12-07T08:12:02;5.50;99.90
2967;DHT22;1493;51.496;7.210;2022-12-07T08:14:30;5.50;99.90
2967;DHT22;1493;51.496;7.210;2022-12-07T08:16:58;5.60;99.90
2967;DHT22;1493;51.496;7.210;2022-12-07T08:19:26;5.60;99.90
2967;DHT22;1493;51.496;7.210;2022-12-07T08:21:52;5.60;99.90
2967;DHT22;1493;51.496;7.210;2022-12-07T08:24:20;5.70;99.90
2967;DHT22;1493;51.496;7.210;2022-12-07T08:26:47;5.70;99.90
2967;DHT22;1493;51.496;7.210;2022-12-07T08:29:15;5.70;99.90
2967;DHT22;1493;51.496;7.210;2022-12-07T08:31:42;5.80;99.90
2967;DHT22;1493;51.496;7.210;2022-12-07T08:34:12;5.90;99.90
2967;DHT22;1493;51.496;7.210;2022-12-07T08:36:39;6.00;99.90
2967;DHT22;1493;51.496;7.210;2022-12-07T08:39:06;6.00;99.90
2967;DHT22;1493;51.496;7.210;2022-12-07T08:41:33;6.10;99.90
2967;DHT22;1493;51.496;7.210;2022-12-07T08:44:00;6.10;99.90
2967;DHT22;1493;51.496;7.210;2022-12-07T08:46:32;6.20;99.90
2967;DHT22;1493;51.496;7.210;2022-12-07T08:49:04;6.30;99.90
2967;DHT22;1493;51.496;7.210;2022-12-07T08:51:33;6.20;99.90
2967;DHT22;1493;51.496;7.210;2022-12-07T08:54:02;6.20;99.90
2967;DHT22;1493;51.496;7.210;2022-12-07T08:56:30;6.30;99.90
2967;DHT22;1493;51.496;7.210;2022-12-07T08:58:58;6.30;99.90
2967;DHT22;1493;51.496;7.210;2022-12-07T09:01:24;6.40;99.90
2967;DHT22;1493;51.496;7.210;2022-12-07T09:03:52;6.30;99.90
2967;DHT22;1493;51.496;7.210;2022-12-07T09:06:19;6.40;99.90
2967;DHT22;1493;51.496;7.210;2022-12-07T09:08:49;6.40;99.90
2967;DHT22;1493;51.496;7.210;2022-12-07T09:11:16;6.40;99.90
2967;DHT22;1493;51.496;7.210;2022-12-07T09:13:43;6.50;99.90
2967;DHT22;1493;51.496;7.210;2022-12-07T09:16:10;6.60;99.90
2967;DHT22;1493;51.496;7.210;2022-12-07T09:18:37;6.70;99.90
2967;DHT22;1493;51.496;7.210;2022-12-07T09:21:04;6.90;99.90
2967;DHT22;1493;51.496;7.210;2022-12-07T09:23:31;7.10;99.90
2967;DHT22;1493;51.496;7.210;2022-12-07T09:26:00;7.10;99.90
2967;DHT22;1493;51.496;7.210;2022-12-07T09:28:28;7.10;99.90
2967;DHT22;1493;51.496;7.210;2022-12-07T09:30:54;7.20;99.90
2967;DHT22;1493;51.496;7.210;2022-12-07T09:33:21;7.20;99.90
2967;DHT22;1493;51.496;7.210;2022-12-07T09:35:49;7.20;99.90
2967;DHT22;1493;51.496;7.210;2022-12-07T09:38:17;7.20;99.90
2967;DHT22;1493;51.496;7.210;2022-12-07T09:40:45;7.00;99.90
2967;DHT22;1493;51.496;7.210;2022-12-07T09:43:15;7.00;99.90
2967;DHT22;1493;51.496;7.210;2022-12-07T09:45:44;7.20;99.90
2967;DHT22;1493;51.496;7.210;2022-12-07T09:48:17;7.30;99.90
2967;DHT22;1493;51.496;7.210;2022-12-07T09:50:45;7.30;99.90
2967;DHT22;1493;51.496;7.210;2022-12-07T09:53:15;7.40;99.90
2967;DHT22;1493;51.496;7.210;2022-12-07T09:55:44;7.30;99.90
2967;DHT22;1493;51.496;7.210;2022-12-07T09:58:17;7.50;99.90
2967;DHT22;1493;51.496;7.210;2022-12-07T10:00:45;7.60;99.90
2967;DHT22;1493;51.496;7.210;2022-12-07T10:03:12;7.50;99.90
2967;DHT22;1493;51.496;7.210;2022-12-07T10:05:43;7.30;99.90
2967;DHT22;1493;51.496;7.210;2022-12-07T10:08:11;7.50;99.90
2967;DHT22;1493;51.496;7.210;2022-12-07T10:10:38;7.60;99.90
2967;DHT22;1493;51.496;7.210;2022-12-07T10:13:06;7.40;99.90
2967;DHT22;1493;51.496;7.210;2022-12-07T10:15:47;7.30;99.90
2967;DHT22;1493;51.496;7.210;2022-12-07T10:18:27;7.40;99.90
2967;DHT22;1493;51.496;7.210;2022-12-07T10:21:08;7.60;99.90
2967;DHT22;1493;51.496;7.210;2022-12-07T10:23:37;7.60;99.90
2967;DHT22;1493;51.496;7.210;2022-12-07T10:26:24;7.90;99.90
2967;DHT22;1493;51.496;7.210;2022-12-07T10:28:53;7.70;99.90
2967;DHT22;1493;51.496;7.210;2022-12-07T10:31:22;7.90;99.90
2967;DHT22;1493;51.496;7.210;2022-12-07T10:33:51;7.90;99.90
2967;DHT22;1493;51.496;7.210;2022-12-07T10:36:22;7.70;99.90
2967;DHT22;1493;51.496;7.210;2022-12-07T10:38:51;7.70;99.90
2967;DHT22;1493;51.496;7.210;2022-12-07T10:41:18;7.90;99.90
2967;DHT22;1493;51.496;7.210;2022-12-07T10:43:50;7.90;99.90
2967;DHT22;1493;51.496;7.210;2022-12-07T10:46:50;8.00;99.90
2967;DHT22;1493;51.496;7.210;2022-12-07T10:49:48;7.80;99.90
2967;DHT22;1493;51.496;7.210;2022-12-07T10:52:30;7.80;99.90
2967;DHT22;1493;51.496;7.210;2022-12-07T10:55:11;7.90;99.90
2967;DHT22;1493;51.496;7.210;2022-12-07T11:00:41;7.60;99.90
2967;DHT22;1493;51.496;7.210;2022-12-07T11:03:27;7.60;99.90
2967;DHT22;1493;51.496;7.210;2022-12-07T11:06:01;7.80;99.90
2967;DHT22;1493;51.496;7.210;2022-12-07T11:08:42;7.70;99.90
2967;DHT22;1493;51.496;7.210;2022-12-07T11:11:14;7.60;99.90
2967;DHT22;1493;51.496;7.210;2022-12-07T11:13:47;7.70;99.90
2967;DHT22;1493;51.496;7.210;2022-12-07T11:16:23;7.80;99.90
2967;DHT22;1493;51.496;7.210;2022-12-07T11:19:03;7.80;99.90
2967;DHT22;1493;51.496;7.210;2022-12-07T11:21:39;7.80;99.90
2967;DHT22;1493;51.496;7.210;2022-12-07T11:24:14;7.90;99.90
2967;DHT22;1493;51.496;7.210;2022-12-07T11:26:52;8.10;99.90
2967;DHT22;1493;51.496;7.210;2022-12-07T11:29:36;8.20;99.90
2967;DHT22;1493;51.496;7.210;2022-12-07T11:32:13;8.20;99.90
2967;DHT22;1493;51.496;7.210;2022-12-07T11:34:52;8.30;99.90
2967;DHT22;1493;51.496;7.210;2022-12-07T11:37:27;8.30;99.90
2967;DHT22;1493;51.496;7.210;2022-12-07T11:40:00;8.30;99.90
2967;DHT22;1493;51.496;7.210;2022-12-07T11:42:31;8.40;99.90
2967;DHT22;1493;51.496;7.210;2022-12-07T11:45:03;8.50;99.90
2967;DHT22;1493;51.496;7.210;2022-12-07T11:47:40;8.60;99.90
2967;DHT22;1493;51.496;7.210;2022-12-07T11:50:23;8.80;99.90
2967;DHT22;1493;51.496;7.210;2022-12-07T11:52:54;8.80;99.90
2967;DHT22;1493;51.496;7.210;2022-12-07T11:55:27;8.70;99.90
2967;DHT22;1493;51.496;7.210;2022-12-07T11:58:03;8.60;99.90
2967;DHT22;1493;51.496;7.210;2022-12-07T12:00:30;8.50;99.90
2967;DHT22;1493;51.496;7.210;2022-12-07T12:03:01;8.30;99.90
2967;DHT22;1493;51.496;7.210;2022-12-07T12:05:29;8.10;99.90
2967;DHT22;1493;51.496;7.210;2022-12-07T12:08:03;8.10;99.90
2967;DHT22;1493;51.496;7.210;2022-12-07T12:10:41;8.00;99.90
2967;DHT22;1493;51.496;7.210;2022-12-07T12:13:34;7.90;99.90
2967;DHT22;1493;51.496;7.210;2022-12-07T12:16:17;7.70;99.90
2967;DHT22;1493;51.496;7.210;2022-12-07T12:19:02;7.70;99.90
2967;DHT22;1493;51.496;7.210;2022-12-07T12:21:34;7.70;99.90
2967;DHT22;1493;51.496;7.210;2022-12-07T12:24:04;7.60;99.90
2967;DHT22;1493;51.496;7.210;2022-12-07T12:26:37;7.60;99.90
2967;DHT22;1493;51.496;7.210;2022-12-07T12:29:06;7.50;99.90
2967;DHT22;1493;51.496;7.210;2022-12-07T12:31:47;7.70;99.90
2967;DHT22;1493;51.496;7.210;2022-12-07T12:34:34;7.80;99.90
2967;DHT22;1493;51.496;7.210;2022-12-07T12:42:59;8.00;99.90
2967;DHT22;1493;51.496;7.210;2022-12-07T12:45:27;8.00;99.90
2967;DHT22;1493;51.496;7.210;2022-12-07T12:47:58;8.20;99.90
2967;DHT22;1493;51.496;7.210;2022-12-07T12:50:27;8.30;99.90
2967;DHT22;1493;51.496;7.210;2022-12-07T12:53:15;8.30;99.90
2967;DHT22;1493;51.496;7.210;2022-12-07T12:56:14;8.40;99.90
2967;DHT22;1493;51.496;7.210;2022-12-07T12:58:46;8.50;99.90
2967;DHT22;1493;51.496;7.210;2022-12-07T13:01:44;8.60;99.90
2967;DHT22;1493;51.496;7.210;2022-12-07T13:04:49;8.60;99.90
2967;DHT22;1493;51.496;7.210;2022-12-07T13:07:51;8.50;99.90
2967;DHT22;1493;51.496;7.210;2022-12-07T13:10:27;8.50;99.90
2967;DHT22;1493;51.496;7.210;2022-12-07T13:12:57;8.40;99.90
2967;DHT22;1493;51.496;7.210;2022-12-07T13:15:36;8.20;99.90
2967;DHT22;1493;51.496;7.210;2022-12-07T13:20:52;8.20;99.90
2967;DHT22;1493;51.496;7.210;2022-12-07T13:23:25;8.10;99.90
2967;DHT22;1493;51.496;7.210;2022-12-07T13:26:02;8.20;99.90
2967;DHT22;1493;51.496;7.210;2022-12-07T13:28:35;8.20;99.90
2967;DHT22;1493;51.496;7.210;2022-12-07T13:31:11;8.00;99.90
2967;DHT22;1493;51.496;7.210;2022-12-07T13:33:43;7.90;99.90
2967;DHT22;1493;51.496;7.210;2022-12-07T13:36:16;7.90;99.90
2967;DHT22;1493;51.496;7.210;2022-12-07T13:38:49;7.90;99.90
2967;DHT22;1493;51.496;7.210;2022-12-07T13:41:20;7.80;99.90
2967;DHT22;1493;51.496;7.210;2022-12-07T13:43:51;7.80;99.90
2967;DHT22;1493;51.496;7.210;2022-12-07T13:46:20;7.90;99.90
2967;DHT22;1493;51.496;7.210;2022-12-07T13:48:50;7.80;99.90
2967;DHT22;1493;51.496;7.210;2022-12-07T13:51:20;7.80;99.90
2967;DHT22;1493;51.496;7.210;2022-12-07T13:53:49;7.70;99.90
2967;DHT22;1493;51.496;7.210;2022-12-07T13:56:18;7.70;99.90
2967;DHT22;1493;51.496;7.210;2022-12-07T13:58:45;7.70;99.90
2967;DHT22;1493;51.496;7.210;2022-12-07T14:01:12;7.50;99.90
2967;DHT22;1493;51.496;7.210;2022-12-07T14:03:39;7.20;99.90
2967;DHT22;1493;51.496;7.210;2022-12-07T14:06:20;6.90;99.90
2967;DHT22;1493;51.496;7.210;2022-12-07T14:08:47;6.70;99.90
2967;DHT22;1493;51.496;7.210;2022-12-07T14:11:18;6.50;99.90
2967;DHT22;1493;51.496;7.210;2022-12-07T14:13:58;6.30;99.90
2967;DHT22;1493;51.496;7.210;2022-12-07T14:16:27;6.10;99.90
2967;DHT22;1493;51.496;7.210;2022-12-07T14:18:55;6.10;99.90
2967;DHT22;1493;51.496;7.210;2022-12-07T14:21:24;6.20;99.90
2967;DHT22;1493;51.496;7.210;2022-12-07T14:24:16;6.10;99.90
2967;DHT22;1493;51.496;7.210;2022-12-07T14:26:47;6.00;99.90
2967;DHT22;1493;51.496;7.210;2022-12-07T14:29:32;5.90;99.90
2967;DHT22;1493;51.496;7.210;2022-12-07T14:32:12;5.70;99.90
2967;DHT22;1493;51.496;7.210;2022-12-07T14:34:41;5.70;99.90
2967;DHT22;1493;51.496;7.210;2022-12-07T14:37:08;5.70;99.90
2967;DHT22;1493;51.496;7.210;2022-12-07T14:39:36;5.70;99.90
2967;DHT22;1493;51.496;7.210;2022-12-07T14:42:04;5.60;99.90
2967;DHT22;1493;51.496;7.210;2022-12-07T14:44:31;5.50;99.90
2967;DHT22;1493;51.496;7.210;2022-12-07T14:46:58;5.50;99.90
2967;DHT22;1493;51.496;7.210;2022-12-07T14:49:25;5.40;99.90
2967;DHT22;1493;51.496;7.210;2022-12-07T14:51:52;5.30;99.90
2967;DHT22;1493;51.496;7.210;2022-12-07T14:54:20;5.30;99.90
2967;DHT22;1493;51.496;7.210;2022-12-07T14:56:47;5.10;99.90
2967;DHT22;1493;51.496;7.210;2022-12-07T14:59:17;5.10;99.90
2967;DHT22;1493;51.496;7.210;2022-12-07T15:01:45;5.00;99.90
2967;DHT22;1493;51.496;7.210;2022-12-07T15:04:12;4.90;99.90
2967;DHT22;1493;51.496;7.210;2022-12-07T15:06:39;4.80;99.90
2967;DHT22;1493;51.496;7.210;2022-12-07T15:09:09;4.80;99.90
2967;DHT22;1493;51.496;7.210;2022-12-07T15:11:37;4.70;99.90
2967;DHT22;1493;51.496;7.210;2022-12-07T15:14:03;4.70;99.90
2967;DHT22;1493;51.496;7.210;2022-12-07T15:16:41;4.70;99.90
2967;DHT22;1493;51.496;7.210;2022-12-07T15:19:13;4.70;99.90
2967;DHT22;1493;51.496;7.210;2022-12-07T15:21:41;4.70;99.90
2967;DHT22;1493;51.496;7.210;2022-12-07T15:24:09;4.70;99.90
2967;DHT22;1493;51.496;7.210;2022-12-07T15:26:36;4.70;99.90
2967;DHT22;1493;51.496;7.210;2022-12-07T15:29:03;4.70;99.90
2967;DHT22;1493;51.496;7.210;2022-12-07T15:31:30;4.70;99.90
2967;DHT22;1493;51.496;7.210;2022-12-07T15:33:58;4.60;99.90
2967;DHT22;1493;51.496;7.210;2022-12-07T15:36:28;4.60;99.90
2967;DHT22;1493;51.496;7.210;2022-12-07T15:38:56;4.50;99.90
2967;DHT22;1493;51.496;7.210;2022-12-07T15:41:23;4.50;99.90
2967;DHT22;1493;51.496;7.210;2022-12-07T15:43:50;4.50;99.90
2967;DHT22;1493;51.496;7.210;2022-12-07T15:46:36;4.50;99.90
2967;DHT22;1493;51.496;7.210;2022-12-07T15:49:07;4.50;99.90
2967;DHT22;1493;51.496;7.210;2022-12-07T15:51:34;4.60;99.90
2967;DHT22;1493;51.496;7.210;2022-12-07T15:54:01;4.60;99.90
2967;DHT22;1493;51.496;7.210;2022-12-07T15:56:28;4.70;99.90
2967;DHT22;1493;51.496;7.210;2022-12-07T15:58:56;4.70;99.90
2967;DHT22;1493;51.496;7.210;2022-12-07T16:01:23;4.80;99.90
2967;DHT22;1493;51.496;7.210;2022-12-07T16:03:50;4.80;99.90
2967;DHT22;1493;51.496;7.210;2022-12-07T16:06:18;4.80;99.90
2967;DHT22;1493;51.496;7.210;2022-12-07T16:08:46;4.80;99.90
2967;DHT22;1493;51.496;7.210;2022-12-07T16:11:13;4.80;99.90
2967;DHT22;1493;51.496;7.210;2022-12-07T16:13:40;4.80;99.90
2967;DHT22;1493;51.496;7.210;2022-12-07T16:16:10;4.80;99.90
2967;DHT22;1493;51.496;7.210;2022-12-07T16:18:38;4.80;99.90
2967;DHT22;1493;51.496;7.210;2022-12-07T16:21:08;4.90;99.90
2967;DHT22;1493;51.496;7.210;2022-12-07T16:23:36;4.90;99.90
2967;DHT22;1493;51.496;7.210;2022-12-07T16:26:07;5.00;99.90
2967;DHT22;1493;51.496;7.210;2022-12-07T16:28:35;5.00;99.90
2967;DHT22;1493;51.496;7.210;2022-12-07T16:31:03;5.00;99.90
2967;DHT22;1493;51.496;7.210;2022-12-07T16:33:32;5.10;99.90
2967;DHT22;1493;51.496;7.210;2022-12-07T16:35:59;5.10;99.90
2967;DHT22;1493;51.496;7.210;2022-12-07T16:38:26;5.10;99.90
2967;DHT22;1493;51.496;7.210;2022-12-07T16:40:55;5.10;99.90
2967;DHT22;1493;51.496;7.210;2022-12-07T16:43:22;5.20;99.90
2967;DHT22;1493;51.496;7.210;2022-12-07T16:45:49;5.30;99.90
2967;DHT22;1493;51.496;7.210;2022-12-07T16:48:16;5.30;99.90
2967;DHT22;1493;51.496;7.210;2022-12-07T16:50:43;5.30;99.90